Weather at Baalbek Airfield [CLOSED]

Public forecast

Using degrees Celsius for public forecast. Weather courtesy of forecast.io.

Closest aviation weather report (METAR) to Baalbek Airfield

Report is more than 6 hours old.

Closest report is Beirut Rafic Hariri International Airport, 36.7 nm (68.0 km) WSW. Retrieved 2022/09/17 19:00 UTC (13 days ago):

OLBA 171900Z 03007KT 360V060 8000 NSC 28/20 Q1009 NOSIG

Closest aviation forecast (TAF) to Baalbek Airfield

Forecast is more than 12 hours old.

Closest forecast is Beirut Rafic Hariri International Airport, 36.7 nm (68.0 km) WSW. Retrieved 2022/09/17 06:00 UTC (13 days ago):

TAF OLBA 170400Z 1706/1812 32010KT 8000 FEW026 BECMG 1714/1716 03006KT BECMG 1722/1724 12003KT BECMG 1806/1809 29010KT SCT026